San Antonio de Areco, Argentina
Current Conditions -  °F | °C
As of 11:00 AM on Thursday 23 Oct 2014 (Local Time) from SADF Reporting Station
Clear Clear  
Wind Chill: 28°   Ceiling: Unl
Heat Index: 29°   Visibility: 6mi
Dew Point: 18°   Wind: 3mph
Humidity: 54%   Direction: 270°W
Pressure: 30"   Gusts: NA
Location:  34.25°S, 59.47°W
Report Text: SADF 231400Z 27003KT CAVOK 28/18 Q1016
Loading
Personal Weather Stations






























Interactive Weather Map
Tropical Storm Tracking
New forecast layout! Learn more

10-Day Weather Forecast

Advertisements
Track Severe Weather on mobile